sensor_id;sensor_type;location;lat;lon;timestamp;P1;durP1;ratioP1;P2;durP2;ratioP2
31390;SDS011;18022;45.492;11.548;2024-01-15T00:00:01;72.13;;;40.38;;
31390;SDS011;18022;45.492;11.548;2024-01-15T00:02:29;64.50;;;40.15;;
31390;SDS011;18022;45.492;11.548;2024-01-15T00:04:55;67.35;;;40.97;;
31390;SDS011;18022;45.492;11.548;2024-01-15T00:07:21;66.13;;;40.28;;
31390;SDS011;18022;45.492;11.548;2024-01-15T00:09:47;68.78;;;41.55;;
31390;SDS011;18022;45.492;11.548;2024-01-15T00:12:13;74.00;;;43.85;;
31390;SDS011;18022;45.492;11.548;2024-01-15T00:14:39;65.85;;;41.67;;
31390;SDS011;18022;45.492;11.548;2024-01-15T00:17:05;74.63;;;44.42;;
31390;SDS011;18022;45.492;11.548;2024-01-15T00:19:31;68.78;;;42.33;;
31390;SDS011;18022;45.492;11.548;2024-01-15T00:21:57;65.93;;;41.03;;
31390;SDS011;18022;45.492;11.548;2024-01-15T00:24:24;66.75;;;39.75;;
31390;SDS011;18022;45.492;11.548;2024-01-15T00:26:50;61.90;;;38.63;;
31390;SDS011;18022;45.492;11.548;2024-01-15T00:29:16;59.90;;;37.15;;
31390;SDS011;18022;45.492;11.548;2024-01-15T00:31:42;55.50;;;36.05;;
31390;SDS011;18022;45.492;11.548;2024-01-15T00:34:08;60.42;;;37.67;;
31390;SDS011;18022;45.492;11.548;2024-01-15T00:36:35;58.80;;;36.85;;
31390;SDS011;18022;45.492;11.548;2024-01-15T00:39:01;55.08;;;35.50;;
31390;SDS011;18022;45.492;11.548;2024-01-15T00:41:30;55.08;;;34.85;;
31390;SDS011;18022;45.492;11.548;2024-01-15T00:43:56;53.17;;;34.92;;
31390;SDS011;18022;45.492;11.548;2024-01-15T00:46:22;54.42;;;35.40;;
31390;SDS011;18022;45.492;11.548;2024-01-15T00:48:48;52.60;;;33.63;;
31390;SDS011;18022;45.492;11.548;2024-01-15T00:51:14;56.13;;;35.72;;
31390;SDS011;18022;45.492;11.548;2024-01-15T00:53:40;62.80;;;38.30;;
31390;SDS011;18022;45.492;11.548;2024-01-15T00:56:06;57.50;;;35.50;;
31390;SDS011;18022;45.492;11.548;2024-01-15T00:58:32;54.72;;;34.13;;
31390;SDS011;18022;45.492;11.548;2024-01-15T01:00:58;56.60;;;36.05;;
31390;SDS011;18022;45.492;11.548;2024-01-15T01:03:24;54.83;;;34.53;;
31390;SDS011;18022;45.492;11.548;2024-01-15T01:05:50;52.78;;;35.58;;
31390;SDS011;18022;45.492;11.548;2024-01-15T01:08:16;60.00;;;35.85;;
31390;SDS011;18022;45.492;11.548;2024-01-15T01:10:42;55.35;;;36.25;;
31390;SDS011;18022;45.492;11.548;2024-01-15T01:13:09;54.50;;;35.88;;
31390;SDS011;18022;45.492;11.548;2024-01-15T01:15:35;57.70;;;35.72;;
31390;SDS011;18022;45.492;11.548;2024-01-15T01:18:01;57.83;;;35.55;;
31390;SDS011;18022;45.492;11.548;2024-01-15T01:20:27;56.03;;;35.53;;
31390;SDS011;18022;45.492;11.548;2024-01-15T01:22:53;56.90;;;34.75;;
31390;SDS011;18022;45.492;11.548;2024-01-15T01:25:19;54.47;;;35.58;;
31390;SDS011;18022;45.492;11.548;2024-01-15T01:27:45;57.25;;;35.90;;
31390;SDS011;18022;45.492;11.548;2024-01-15T01:30:11;56.45;;;36.17;;
31390;SDS011;18022;45.492;11.548;2024-01-15T01:32:37;61.70;;;38.15;;
31390;SDS011;18022;45.492;11.548;2024-01-15T01:35:03;58.45;;;37.63;;
31390;SDS011;18022;45.492;11.548;2024-01-15T01:37:29;56.33;;;36.70;;
31390;SDS011;18022;45.492;11.548;2024-01-15T01:39:55;56.50;;;35.58;;
31390;SDS011;18022;45.492;11.548;2024-01-15T01:42:22;55.20;;;34.72;;
31390;SDS011;18022;45.492;11.548;2024-01-15T01:44:48;58.80;;;36.38;;
31390;SDS011;18022;45.492;11.548;2024-01-15T01:47:14;59.65;;;36.03;;
31390;SDS011;18022;45.492;11.548;2024-01-15T01:49:40;54.50;;;35.17;;
31390;SDS011;18022;45.492;11.548;2024-01-15T01:52:06;51.90;;;34.40;;
31390;SDS011;18022;45.492;11.548;2024-01-15T01:54:32;55.78;;;34.90;;
31390;SDS011;18022;45.492;11.548;2024-01-15T01:56:58;57.92;;;37.90;;
31390;SDS011;18022;45.492;11.548;2024-01-15T01:59:28;61.47;;;38.88;;
31390;SDS011;18022;45.492;11.548;2024-01-15T02:01:54;60.78;;;37.78;;
31390;SDS011;18022;45.492;11.548;2024-01-15T02:04:22;61.95;;;37.25;;
31390;SDS011;18022;45.492;11.548;2024-01-15T02:06:49;61.08;;;37.45;;
31390;SDS011;18022;45.492;11.548;2024-01-15T02:09:15;54.78;;;35.60;;
31390;SDS011;18022;45.492;11.548;2024-01-15T02:11:42;59.72;;;36.03;;
31390;SDS011;18022;45.492;11.548;2024-01-15T02:14:08;51.75;;;34.95;;
31390;SDS011;18022;45.492;11.548;2024-01-15T02:16:34;53.00;;;35.05;;
31390;SDS011;18022;45.492;11.548;2024-01-15T02:19:01;54.00;;;34.80;;
31390;SDS011;18022;45.492;11.548;2024-01-15T02:21:27;54.03;;;34.88;;
31390;SDS011;18022;45.492;11.548;2024-01-15T02:23:54;49.90;;;33.08;;
31390;SDS011;18022;45.492;11.548;2024-01-15T02:26:20;53.80;;;33.25;;
31390;SDS011;18022;45.492;11.548;2024-01-15T02:28:46;52.35;;;34.42;;
31390;SDS011;18022;45.492;11.548;2024-01-15T02:31:13;50.72;;;33.63;;
31390;SDS011;18022;45.492;11.548;2024-01-15T02:33:39;57.30;;;36.25;;
31390;SDS011;18022;45.492;11.548;2024-01-15T02:38:33;55.58;;;34.40;;
31390;SDS011;18022;45.492;11.548;2024-01-15T02:40:59;53.17;;;34.25;;
31390;SDS011;18022;45.492;11.548;2024-01-15T02:43:25;50.72;;;33.63;;
31390;SDS011;18022;45.492;11.548;2024-01-15T02:45:51;56.03;;;35.55;;
31390;SDS011;18022;45.492;11.548;2024-01-15T02:48:17;49.78;;;32.05;;
31390;SDS011;18022;45.492;11.548;2024-01-15T02:50:43;46.90;;;30.95;;
31390;SDS011;18022;45.492;11.548;2024-01-15T02:53:09;43.25;;;28.83;;
31390;SDS011;18022;45.492;11.548;2024-01-15T02:55:35;49.58;;;32.03;;
31390;SDS011;18022;45.492;11.548;2024-01-15T02:58:01;50.15;;;31.85;;
31390;SDS011;18022;45.492;11.548;2024-01-15T03:00:27;48.30;;;31.42;;
31390;SDS011;18022;45.492;11.548;2024-01-15T03:02:54;47.88;;;32.15;;
31390;SDS011;18022;45.492;11.548;2024-01-15T03:05:20;53.63;;;34.67;;
31390;SDS011;18022;45.492;11.548;2024-01-15T03:07:46;51.72;;;32.25;;
31390;SDS011;18022;45.492;11.548;2024-01-15T03:10:12;50.10;;;31.75;;
31390;SDS011;18022;45.492;11.548;2024-01-15T03:12:39;48.60;;;32.00;;
31390;SDS011;18022;45.492;11.548;2024-01-15T03:15:05;52.40;;;32.00;;
31390;SDS011;18022;45.492;11.548;2024-01-15T03:17:31;49.28;;;31.77;;
31390;SDS011;18022;45.492;11.548;2024-01-15T03:19:57;49.17;;;32.50;;
31390;SDS011;18022;45.492;11.548;2024-01-15T03:22:23;52.47;;;33.05;;
31390;SDS011;18022;45.492;11.548;2024-01-15T03:24:49;50.83;;;32.25;;
31390;SDS011;18022;45.492;11.548;2024-01-15T03:27:15;47.10;;;30.52;;
31390;SDS011;18022;45.492;11.548;2024-01-15T03:29:41;49.80;;;32.08;;
31390;SDS011;18022;45.492;11.548;2024-01-15T03:32:07;46.40;;;31.10;;
31390;SDS011;18022;45.492;11.548;2024-01-15T03:34:34;44.55;;;29.85;;
31390;SDS011;18022;45.492;11.548;2024-01-15T03:37:00;48.47;;;31.30;;
31390;SDS011;18022;45.492;11.548;2024-01-15T03:39:26;48.28;;;30.95;;
31390;SDS011;18022;45.492;11.548;2024-01-15T03:41:52;48.85;;;30.50;;
31390;SDS011;18022;45.492;11.548;2024-01-15T03:44:18;51.15;;;32.33;;
31390;SDS011;18022;45.492;11.548;2024-01-15T03:46:44;51.15;;;31.92;;
31390;SDS011;18022;45.492;11.548;2024-01-15T03:49:10;49.72;;;31.63;;
31390;SDS011;18022;45.492;11.548;2024-01-15T03:51:37;45.15;;;30.63;;
31390;SDS011;18022;45.492;11.548;2024-01-15T03:54:03;50.15;;;31.63;;
31390;SDS011;18022;45.492;11.548;2024-01-15T03:56:29;51.28;;;32.10;;
31390;SDS011;18022;45.492;11.548;2024-01-15T03:58:55;52.13;;;31.85;;
31390;SDS011;18022;45.492;11.548;2024-01-15T04:01:21;47.13;;;30.77;;
31390;SDS011;18022;45.492;11.548;2024-01-15T04:03:47;49.42;;;31.30;;
31390;SDS011;18022;45.492;11.548;2024-01-15T04:06:13;49.30;;;31.33;;
31390;SDS011;18022;45.492;11.548;2024-01-15T04:08:39;45.17;;;29.75;;
31390;SDS011;18022;45.492;11.548;2024-01-15T04:11:06;46.10;;;29.75;;
31390;SDS011;18022;45.492;11.548;2024-01-15T04:13:32;51.90;;;30.77;;
31390;SDS011;18022;45.492;11.548;2024-01-15T04:15:59;50.63;;;30.38;;
31390;SDS011;18022;45.492;11.548;2024-01-15T04:18:25;51.20;;;30.77;;
31390;SDS011;18022;45.492;11.548;2024-01-15T04:20:51;53.90;;;32.03;;
31390;SDS011;18022;45.492;11.548;2024-01-15T04:23:18;49.33;;;31.38;;
31390;SDS011;18022;45.492;11.548;2024-01-15T04:25:44;47.85;;;30.83;;
31390;SDS011;18022;45.492;11.548;2024-01-15T04:28:11;52.90;;;32.53;;
31390;SDS011;18022;45.492;11.548;2024-01-15T04:30:37;53.90;;;32.95;;
31390;SDS011;18022;45.492;11.548;2024-01-15T04:33:03;49.33;;;32.72;;
31390;SDS011;18022;45.492;11.548;2024-01-15T04:35:30;51.28;;;31.48;;
31390;SDS011;18022;45.492;11.548;2024-01-15T04:37:56;48.72;;;31.50;;
31390;SDS011;18022;45.492;11.548;2024-01-15T04:40:22;55.30;;;32.58;;
31390;SDS011;18022;45.492;11.548;2024-01-15T04:42:48;51.65;;;32.28;;
31390;SDS011;18022;45.492;11.548;2024-01-15T04:45:14;50.95;;;31.45;;
31390;SDS011;18022;45.492;11.548;2024-01-15T04:47:40;50.80;;;31.58;;
31390;SDS011;18022;45.492;11.548;2024-01-15T04:50:07;47.00;;;30.10;;
31390;SDS011;18022;45.492;11.548;2024-01-15T04:52:33;49.35;;;30.65;;
31390;SDS011;18022;45.492;11.548;2024-01-15T04:54:59;46.30;;;29.52;;
31390;SDS011;18022;45.492;11.548;2024-01-15T04:57:25;47.05;;;30.00;;
31390;SDS011;18022;45.492;11.548;2024-01-15T04:59:51;51.65;;;31.40;;
31390;SDS011;18022;45.492;11.548;2024-01-15T05:02:17;47.47;;;29.98;;
31390;SDS011;18022;45.492;11.548;2024-01-15T05:04:43;51.55;;;32.08;;
31390;SDS011;18022;45.492;11.548;2024-01-15T05:07:09;51.13;;;31.48;;
31390;SDS011;18022;45.492;11.548;2024-01-15T05:09:35;47.20;;;29.75;;
31390;SDS011;18022;45.492;11.548;2024-01-15T05:12:01;49.55;;;32.65;;
31390;SDS011;18022;45.492;11.548;2024-01-15T05:14:28;48.42;;;30.65;;
31390;SDS011;18022;45.492;11.548;2024-01-15T05:16:54;49.25;;;30.55;;
31390;SDS011;18022;45.492;11.548;2024-01-15T05:19:20;47.05;;;29.67;;
31390;SDS011;18022;45.492;11.548;2024-01-15T05:21:46;50.17;;;31.70;;
31390;SDS011;18022;45.492;11.548;2024-01-15T05:24:12;51.28;;;32.03;;
31390;SDS011;18022;45.492;11.548;2024-01-15T05:26:38;47.63;;;29.75;;
31390;SDS011;18022;45.492;11.548;2024-01-15T05:29:04;51.05;;;31.27;;
31390;SDS011;18022;45.492;11.548;2024-01-15T05:31:30;47.70;;;30.05;;
31390;SDS011;18022;45.492;11.548;2024-01-15T05:33:56;51.83;;;32.33;;
31390;SDS011;18022;45.492;11.548;2024-01-15T05:36:22;52.08;;;31.48;;
31390;SDS011;18022;45.492;11.548;2024-01-15T05:38:48;50.25;;;31.08;;
31390;SDS011;18022;45.492;11.548;2024-01-15T05:41:14;54.83;;;32.03;;
31390;SDS011;18022;45.492;11.548;2024-01-15T05:43:40;51.03;;;31.75;;
31390;SDS011;18022;45.492;11.548;2024-01-15T05:46:06;53.53;;;31.70;;
31390;SDS011;18022;45.492;11.548;2024-01-15T05:48:33;50.45;;;31.25;;
31390;SDS011;18022;45.492;11.548;2024-01-15T05:50:59;50.10;;;31.45;;
31390;SDS011;18022;45.492;11.548;2024-01-15T05:53:25;51.50;;;31.13;;
31390;SDS011;18022;45.492;11.548;2024-01-15T05:55:51;50.53;;;30.45;;
31390;SDS011;18022;45.492;11.548;2024-01-15T05:58:17;48.28;;;29.45;;
31390;SDS011;18022;45.492;11.548;2024-01-15T06:00:43;43.65;;;28.42;;
31390;SDS011;18022;45.492;11.548;2024-01-15T06:03:10;49.50;;;29.73;;
31390;SDS011;18022;45.492;11.548;2024-01-15T06:05:36;48.58;;;29.50;;
31390;SDS011;18022;45.492;11.548;2024-01-15T06:08:02;48.83;;;28.88;;
31390;SDS011;18022;45.492;11.548;2024-01-15T06:10:28;49.45;;;31.02;;
31390;SDS011;18022;45.492;11.548;2024-01-15T06:12:54;48.72;;;30.00;;
31390;SDS011;18022;45.492;11.548;2024-01-15T06:15:20;52.10;;;31.88;;
31390;SDS011;18022;45.492;11.548;2024-01-15T06:17:46;50.20;;;31.05;;
31390;SDS011;18022;45.492;11.548;2024-01-15T06:20:13;49.72;;;29.33;;
31390;SDS011;18022;45.492;11.548;2024-01-15T06:22:39;54.42;;;32.80;;
31390;SDS011;18022;45.492;11.548;2024-01-15T06:25:08;53.63;;;31.95;;
31390;SDS011;18022;45.492;11.548;2024-01-15T06:27:34;49.63;;;30.88;;
31390;SDS011;18022;45.492;11.548;2024-01-15T06:30:00;50.72;;;32.33;;
31390;SDS011;18022;45.492;11.548;2024-01-15T06:32:27;54.65;;;32.55;;
31390;SDS011;18022;45.492;11.548;2024-01-15T06:34:53;48.22;;;31.08;;
31390;SDS011;18022;45.492;11.548;2024-01-15T06:37:19;53.83;;;32.58;;
31390;SDS011;18022;45.492;11.548;2024-01-15T06:39:45;54.15;;;33.50;;
31390;SDS011;18022;45.492;11.548;2024-01-15T06:42:11;52.28;;;32.65;;
31390;SDS011;18022;45.492;11.548;2024-01-15T06:44:37;55.83;;;33.53;;
31390;SDS011;18022;45.492;11.548;2024-01-15T06:47:03;57.90;;;33.97;;
31390;SDS011;18022;45.492;11.548;2024-01-15T06:49:30;60.17;;;34.35;;
31390;SDS011;18022;45.492;11.548;2024-01-15T06:51:56;54.47;;;33.13;;
31390;SDS011;18022;45.492;11.548;2024-01-15T06:54:22;55.42;;;33.55;;
31390;SDS011;18022;45.492;11.548;2024-01-15T06:56:48;57.08;;;34.30;;
31390;SDS011;18022;45.492;11.548;2024-01-15T06:59:15;62.35;;;36.92;;
31390;SDS011;18022;45.492;11.548;2024-01-15T07:01:41;58.85;;;36.58;;
31390;SDS011;18022;45.492;11.548;2024-01-15T07:06:40;59.63;;;37.03;;
31390;SDS011;18022;45.492;11.548;2024-01-15T07:09:06;56.67;;;34.10;;
31390;SDS011;18022;45.492;11.548;2024-01-15T07:11:34;52.63;;;33.13;;
31390;SDS011;18022;45.492;11.548;2024-01-15T07:14:00;53.95;;;33.25;;
31390;SDS011;18022;45.492;11.548;2024-01-15T07:16:26;52.75;;;32.63;;
31390;SDS011;18022;45.492;11.548;2024-01-15T07:18:52;52.90;;;31.90;;
31390;SDS011;18022;45.492;11.548;2024-01-15T07:21:18;54.03;;;32.55;;
31390;SDS011;18022;45.492;11.548;2024-01-15T07:23:44;54.13;;;32.75;;
31390;SDS011;18022;45.492;11.548;2024-01-15T07:26:10;52.88;;;33.38;;
31390;SDS011;18022;45.492;11.548;2024-01-15T07:28:36;56.92;;;34.55;;
31390;SDS011;18022;45.492;11.548;2024-01-15T07:31:02;58.13;;;35.83;;
31390;SDS011;18022;45.492;11.548;2024-01-15T07:33:29;57.78;;;35.00;;
31390;SDS011;18022;45.492;11.548;2024-01-15T07:35:55;58.42;;;34.90;;
31390;SDS011;18022;45.492;11.548;2024-01-15T07:38:21;65.03;;;37.38;;
31390;SDS011;18022;45.492;11.548;2024-01-15T07:40:47;60.53;;;35.95;;
31390;SDS011;18022;45.492;11.548;2024-01-15T07:43:14;58.20;;;34.97;;
31390;SDS011;18022;45.492;11.548;2024-01-15T07:45:40;53.95;;;34.42;;
31390;SDS011;18022;45.492;11.548;2024-01-15T07:48:06;54.78;;;34.53;;
31390;SDS011;18022;45.492;11.548;2024-01-15T07:50:32;56.33;;;34.38;;
31390;SDS011;18022;45.492;11.548;2024-01-15T07:52:58;58.95;;;34.25;;
31390;SDS011;18022;45.492;11.548;2024-01-15T07:55:24;60.67;;;36.45;;
31390;SDS011;18022;45.492;11.548;2024-01-15T07:57:50;63.63;;;36.83;;
31390;SDS011;18022;45.492;11.548;2024-01-15T08:00:18;48.78;;;27.65;;
31390;SDS011;18022;45.492;11.548;2024-01-15T08:02:44;73.00;;;40.30;;
31390;SDS011;18022;45.492;11.548;2024-01-15T08:05:10;67.20;;;39.83;;
31390;SDS011;18022;45.492;11.548;2024-01-15T08:07:36;67.88;;;40.80;;
31390;SDS011;18022;45.492;11.548;2024-01-15T08:10:02;80.47;;;46.25;;
31390;SDS011;18022;45.492;11.548;2024-01-15T08:12:29;64.22;;;39.42;;
31390;SDS011;18022;45.492;11.548;2024-01-15T08:14:55;65.75;;;39.40;;
31390;SDS011;18022;45.492;11.548;2024-01-15T08:17:21;69.10;;;40.20;;
31390;SDS011;18022;45.492;11.548;2024-01-15T08:19:47;81.78;;;46.17;;
31390;SDS011;18022;45.492;11.548;2024-01-15T08:22:13;85.97;;;48.80;;
31390;SDS011;18022;45.492;11.548;2024-01-15T08:24:39;94.72;;;52.03;;
31390;SDS011;18022;45.492;11.548;2024-01-15T08:27:05;85.00;;;50.08;;
31390;SDS011;18022;45.492;11.548;2024-01-15T08:29:32;86.45;;;49.72;;
31390;SDS011;18022;45.492;11.548;2024-01-15T08:34:25;83.03;;;46.63;;
31390;SDS011;18022;45.492;11.548;2024-01-15T08:36:51;73.22;;;45.50;;
31390;SDS011;18022;45.492;11.548;2024-01-15T08:39:17;65.22;;;40.83;;
31390;SDS011;18022;45.492;11.548;2024-01-15T08:41:44;67.35;;;40.17;;
31390;SDS011;18022;45.492;11.548;2024-01-15T08:44:11;58.35;;;36.08;;
31390;SDS011;18022;45.492;11.548;2024-01-15T08:46:38;61.97;;;38.20;;
31390;SDS011;18022;45.492;11.548;2024-01-15T08:49:04;70.22;;;41.00;;
31390;SDS011;18022;45.492;11.548;2024-01-15T08:51:31;73.00;;;44.92;;
31390;SDS011;18022;45.492;11.548;2024-01-15T08:53:57;77.95;;;46.22;;
31390;SDS011;18022;45.492;11.548;2024-01-15T08:56:23;74.63;;;45.58;;
31390;SDS011;18022;45.492;11.548;2024-01-15T08:58:49;83.25;;;50.95;;
31390;SDS011;18022;45.492;11.548;2024-01-15T09:01:15;76.20;;;47.40;;
31390;SDS011;18022;45.492;11.548;2024-01-15T09:03:41;74.07;;;44.13;;
31390;SDS011;18022;45.492;11.548;2024-01-15T09:06:08;75.00;;;44.35;;
31390;SDS011;18022;45.492;11.548;2024-01-15T09:08:34;74.50;;;44.63;;
31390;SDS011;18022;45.492;11.548;2024-01-15T09:11:01;77.57;;;42.73;;
31390;SDS011;18022;45.492;11.548;2024-01-15T09:13:28;41.05;;;28.02;;
31390;SDS011;18022;45.492;11.548;2024-01-15T09:15:54;68.25;;;43.17;;
31390;SDS011;18022;45.492;11.548;2024-01-15T09:18:21;69.20;;;43.65;;
31390;SDS011;18022;45.492;11.548;2024-01-15T09:20:47;72.60;;;44.55;;
31390;SDS011;18022;45.492;11.548;2024-01-15T09:23:13;78.82;;;44.53;;
31390;SDS011;18022;45.492;11.548;2024-01-15T09:25:39;76.20;;;47.38;;
31390;SDS011;18022;45.492;11.548;2024-01-15T09:28:05;70.60;;;44.92;;
31390;SDS011;18022;45.492;11.548;2024-01-15T09:30:33;75.97;;;46.10;;
31390;SDS011;18022;45.492;11.548;2024-01-15T09:32:59;76.88;;;47.15;;
31390;SDS011;18022;45.492;11.548;2024-01-15T09:35:25;70.78;;;44.30;;
31390;SDS011;18022;45.492;11.548;2024-01-15T09:37:51;76.30;;;45.67;;
31390;SDS011;18022;45.492;11.548;2024-01-15T09:40:17;72.13;;;44.75;;
31390;SDS011;18022;45.492;11.548;2024-01-15T09:42:46;74.40;;;45.60;;
31390;SDS011;18022;45.492;11.548;2024-01-15T09:45:12;73.72;;;43.50;;
31390;SDS011;18022;45.492;11.548;2024-01-15T09:47:38;77.43;;;47.42;;
31390;SDS011;18022;45.492;11.548;2024-01-15T09:50:04;66.82;;;43.53;;
31390;SDS011;18022;45.492;11.548;2024-01-15T09:52:30;73.20;;;43.75;;
31390;SDS011;18022;45.492;11.548;2024-01-15T09:54:58;75.47;;;43.65;;
31390;SDS011;18022;45.492;11.548;2024-01-15T09:57:26;78.60;;;45.17;;
31390;SDS011;18022;45.492;11.548;2024-01-15T09:59:52;71.38;;;45.30;;
31390;SDS011;18022;45.492;11.548;2024-01-15T10:02:19;75.25;;;44.25;;
31390;SDS011;18022;45.492;11.548;2024-01-15T10:04:45;75.53;;;44.15;;
31390;SDS011;18022;45.492;11.548;2024-01-15T10:07:14;70.90;;;43.55;;
31390;SDS011;18022;45.492;11.548;2024-01-15T10:09:42;70.13;;;44.42;;
31390;SDS011;18022;45.492;11.548;2024-01-15T10:12:09;71.97;;;44.65;;
31390;SDS011;18022;45.492;11.548;2024-01-15T10:14:35;77.30;;;46.72;;
31390;SDS011;18022;45.492;11.548;2024-01-15T10:17:11;67.85;;;43.13;;
31390;SDS011;18022;45.492;11.548;2024-01-15T10:19:38;93.28;;;56.15;;
31390;SDS011;18022;45.492;11.548;2024-01-15T10:24:32;54.47;;;33.65;;
31390;SDS011;18022;45.492;11.548;2024-01-15T10:27:04;56.55;;;34.13;;
31390;SDS011;18022;45.492;11.548;2024-01-15T10:29:31;54.50;;;33.67;;
31390;SDS011;18022;45.492;11.548;2024-01-15T10:31:58;53.28;;;33.35;;
31390;SDS011;18022;45.492;11.548;2024-01-15T10:34:24;51.03;;;32.80;;
31390;SDS011;18022;45.492;11.548;2024-01-15T10:36:51;49.17;;;32.00;;
31390;SDS011;18022;45.492;11.548;2024-01-15T10:39:21;51.55;;;33.05;;
31390;SDS011;18022;45.492;11.548;2024-01-15T10:41:47;50.63;;;32.88;;
31390;SDS011;18022;45.492;11.548;2024-01-15T10:44:13;55.08;;;32.70;;
31390;SDS011;18022;45.492;11.548;2024-01-15T10:46:39;49.17;;;32.90;;
31390;SDS011;18022;45.492;11.548;2024-01-15T10:49:05;50.42;;;32.22;;
31390;SDS011;18022;45.492;11.548;2024-01-15T10:51:32;44.42;;;31.15;;
31390;SDS011;18022;45.492;11.548;2024-01-15T10:53:58;50.75;;;31.48;;
31390;SDS011;18022;45.492;11.548;2024-01-15T10:56:25;49.40;;;31.98;;
31390;SDS011;18022;45.492;11.548;2024-01-15T11:01:19;52.60;;;32.90;;
31390;SDS011;18022;45.492;11.548;2024-01-15T11:03:45;51.88;;;31.73;;
31390;SDS011;18022;45.492;11.548;2024-01-15T11:06:18;51.97;;;33.60;;
31390;SDS011;18022;45.492;11.548;2024-01-15T11:08:54;50.90;;;33.03;;
31390;SDS011;18022;45.492;11.548;2024-01-15T11:11:20;51.70;;;31.20;;
31390;SDS011;18022;45.492;11.548;2024-01-15T11:13:50;58.17;;;33.70;;
31390;SDS011;18022;45.492;11.548;2024-01-15T11:16:17;45.20;;;28.75;;
31390;SDS011;18022;45.492;11.548;2024-01-15T11:19:01;56.20;;;35.70;;
31390;SDS011;18022;45.492;11.548;2024-01-15T11:21:27;54.63;;;36.92;;
31390;SDS011;18022;45.492;11.548;2024-01-15T11:23:58;69.85;;;41.38;;
31390;SDS011;18022;45.492;11.548;2024-01-15T11:29:06;50.55;;;34.65;;
31390;SDS011;18022;45.492;11.548;2024-01-15T11:34:05;51.95;;;34.22;;
31390;SDS011;18022;45.492;11.548;2024-01-15T11:42:01;55.95;;;33.40;;
31390;SDS011;18022;45.492;11.548;2024-01-15T11:44:30;55.50;;;33.65;;
31390;SDS011;18022;45.492;11.548;2024-01-15T11:49:26;58.47;;;34.95;;
31390;SDS011;18022;45.492;11.548;2024-01-15T11:51:57;55.22;;;34.38;;
31390;SDS011;18022;45.492;11.548;2024-01-15T11:54:24;61.33;;;34.03;;
31390;SDS011;18022;45.492;11.548;2024-01-15T11:56:50;54.37;;;33.77;;
31390;SDS011;18022;45.492;11.548;2024-01-15T11:59:17;59.15;;;37.35;;
31390;SDS011;18022;45.492;11.548;2024-01-15T12:01:43;63.55;;;37.17;;
31390;SDS011;18022;45.492;11.548;2024-01-15T12:04:09;63.40;;;40.03;;
31390;SDS011;18022;45.492;11.548;2024-01-15T12:06:35;63.83;;;39.97;;
31390;SDS011;18022;45.492;11.548;2024-01-15T12:09:07;60.40;;;38.88;;
31390;SDS011;18022;45.492;11.548;2024-01-15T12:11:34;68.20;;;41.45;;
31390;SDS011;18022;45.492;11.548;2024-01-15T12:14:02;64.85;;;40.25;;
31390;SDS011;18022;45.492;11.548;2024-01-15T12:16:28;63.92;;;38.95;;
31390;SDS011;18022;45.492;11.548;2024-01-15T12:18:54;63.42;;;39.58;;
31390;SDS011;18022;45.492;11.548;2024-01-15T12:21:20;61.65;;;38.47;;
31390;SDS011;18022;45.492;11.548;2024-01-15T12:23:46;63.83;;;37.90;;
31390;SDS011;18022;45.492;11.548;2024-01-15T12:26:13;61.23;;;38.10;;
31390;SDS011;18022;45.492;11.548;2024-01-15T12:28:39;59.38;;;36.60;;
31390;SDS011;18022;45.492;11.548;2024-01-15T12:31:05;56.83;;;36.03;;
31390;SDS011;18022;45.492;11.548;2024-01-15T12:33:32;51.08;;;33.47;;
31390;SDS011;18022;45.492;11.548;2024-01-15T12:35:59;57.83;;;35.77;;
31390;SDS011;18022;45.492;11.548;2024-01-15T12:38:25;53.92;;;34.08;;
31390;SDS011;18022;45.492;11.548;2024-01-15T12:40:51;52.22;;;33.53;;
31390;SDS011;18022;45.492;11.548;2024-01-15T12:43:17;55.70;;;35.00;;
31390;SDS011;18022;45.492;11.548;2024-01-15T12:45:43;62.30;;;34.70;;
31390;SDS011;18022;45.492;11.548;2024-01-15T12:48:09;55.42;;;32.75;;
31390;SDS011;18022;45.492;11.548;2024-01-15T12:50:36;52.40;;;32.95;;
31390;SDS011;18022;45.492;11.548;2024-01-15T12:53:02;49.40;;;31.83;;
31390;SDS011;18022;45.492;11.548;2024-01-15T12:55:28;54.83;;;32.60;;
31390;SDS011;18022;45.492;11.548;2024-01-15T12:57:54;50.45;;;32.35;;
31390;SDS011;18022;45.492;11.548;2024-01-15T13:00:20;51.45;;;31.58;;
31390;SDS011;18022;45.492;11.548;2024-01-15T13:02:46;51.25;;;32.85;;
31390;SDS011;18022;45.492;11.548;2024-01-15T13:05:12;44.97;;;29.98;;
31390;SDS011;18022;45.492;11.548;2024-01-15T13:07:39;47.63;;;30.65;;
31390;SDS011;18022;45.492;11.548;2024-01-15T13:10:05;49.10;;;32.20;;
31390;SDS011;18022;45.492;11.548;2024-01-15T13:12:32;51.53;;;33.45;;
31390;SDS011;18022;45.492;11.548;2024-01-15T13:14:58;50.65;;;33.22;;
31390;SDS011;18022;45.492;11.548;2024-01-15T13:17:24;48.10;;;31.42;;
31390;SDS011;18022;45.492;11.548;2024-01-15T13:19:50;45.83;;;29.50;;
31390;SDS011;18022;45.492;11.548;2024-01-15T13:22:17;49.20;;;29.75;;
31390;SDS011;18022;45.492;11.548;2024-01-15T13:24:43;47.47;;;30.65;;
31390;SDS011;18022;45.492;11.548;2024-01-15T13:27:09;49.58;;;31.42;;
31390;SDS011;18022;45.492;11.548;2024-01-15T13:29:36;50.20;;;31.40;;
31390;SDS011;18022;45.492;11.548;2024-01-15T13:32:03;52.15;;;31.38;;
31390;SDS011;18022;45.492;11.548;2024-01-15T13:34:30;50.92;;;31.92;;
31390;SDS011;18022;45.492;11.548;2024-01-15T13:36:56;55.15;;;32.55;;
31390;SDS011;18022;45.492;11.548;2024-01-15T13:39:22;48.92;;;31.52;;
31390;SDS011;18022;45.492;11.548;2024-01-15T13:41:48;55.63;;;34.90;;
31390;SDS011;18022;45.492;11.548;2024-01-15T13:44:14;50.35;;;32.60;;
31390;SDS011;18022;45.492;11.548;2024-01-15T13:46:40;49.40;;;31.42;;
31390;SDS011;18022;45.492;11.548;2024-01-15T13:49:07;51.60;;;34.40;;
31390;SDS011;18022;45.492;11.548;2024-01-15T13:51:34;54.38;;;33.83;;
31390;SDS011;18022;45.492;11.548;2024-01-15T13:54:00;54.95;;;34.47;;
31390;SDS011;18022;45.492;11.548;2024-01-15T13:56:29;85.75;;;40.47;;
31390;SDS011;18022;45.492;11.548;2024-01-15T13:58:57;56.88;;;35.42;;
31390;SDS011;18022;45.492;11.548;2024-01-15T14:01:23;54.83;;;34.70;;
31390;SDS011;18022;45.492;11.548;2024-01-15T14:03:50;51.63;;;33.22;;
31390;SDS011;18022;45.492;11.548;2024-01-15T14:06:16;50.90;;;33.75;;
31390;SDS011;18022;45.492;11.548;2024-01-15T14:08:42;47.88;;;30.85;;
31390;SDS011;18022;45.492;11.548;2024-01-15T14:11:08;56.13;;;33.92;;
31390;SDS011;18022;45.492;11.548;2024-01-15T14:13:35;50.30;;;33.63;;
31390;SDS011;18022;45.492;11.548;2024-01-15T14:16:01;57.17;;;34.80;;
31390;SDS011;18022;45.492;11.548;2024-01-15T14:18:27;50.63;;;32.42;;
31390;SDS011;18022;45.492;11.548;2024-01-15T14:20:53;52.83;;;34.50;;
31390;SDS011;18022;45.492;11.548;2024-01-15T14:23:19;49.80;;;33.17;;
31390;SDS011;18022;45.492;11.548;2024-01-15T14:25:45;57.33;;;35.95;;
31390;SDS011;18022;45.492;11.548;2024-01-15T14:28:11;55.03;;;35.80;;